Time;durP1;ratioP1;P1;durP2;ratioP2;P2;SDS_P1;SDS_P2;PMS_P1;PMS_P2;Temp;Humidity;BMP_temperature;BMP_pressure;BME280_temperature;BME280_humidity;BME280_pressure;Samples;Min_cycle;Max_cycle;Signal;HPM_P1;HPM_P2
2024/04/09 00:01:12;;;;;;;;;;;;;;;21.88;46.59;98701.22;4478597;26;20380;-72
2024/04/09 00:03:12;;;;;;;;;;;;;;;21.81;46.84;98700.59;4476900;26;19936;-72
2024/04/09 00:05:13;;;;;;;;;;;;;;;22.04;46.67;98702.25;4478981;26;19929;-71
2024/04/09 00:07:14;;;;;;;;;;;;;;;22.09;46.46;98701.47;4478924;26;19998;-72
2024/04/09 00:09:20;;;;;;;;;;;;;;;22.13;46.23;98699.88;4479045;26;19945;-71
2024/04/09 00:11:21;;;;;;;;;;;;;;;22.24;45.96;98709.00;4478386;26;19932;-72
2024/04/09 00:13:21;;;;;;;;;;;;;;;22.20;45.97;98705.13;4478843;26;20409;-72
2024/04/09 00:15:22;;;;;;;;;;;;;;;21.79;47.00;98691.84;4478793;26;19936;-71
2024/04/09 00:17:25;;;;;;;;;;;;;;;21.67;47.22;98689.25;4478253;26;20431;-72
2024/04/09 00:19:25;;;;;;;;;;;;;;;21.91;46.41;98698.00;4478490;26;19941;-72
2024/04/09 00:21:25;;;;;;;;;;;;;;;21.96;46.18;98705.41;4477824;26;20254;-71
2024/04/09 00:23:28;;;;;;;;;;;;;;;22.08;46.23;98703.38;4479151;26;20242;-71
2024/04/09 00:25:29;;;;;;;;;;;;;;;22.20;45.87;98700.50;4479272;26;19940;-71
2024/04/09 00:27:29;;;;;;;;;;;;;;;22.29;45.65;98703.63;4478609;26;20524;-71
2024/04/09 00:29:31;;;;;;;;;;;;;;;22.34;45.61;98700.94;4481633;26;19929;-71
2024/04/09 00:31:32;;;;;;;;;;;;;;;22.27;45.66;98697.59;4484518;26;19933;-71
2024/04/09 00:33:33;;;;;;;;;;;;;;;22.18;45.97;98697.25;4489107;26;19939;-73
2024/04/09 00:35:33;;;;;;;;;;;;;;;22.09;46.14;98696.84;4480138;26;19929;-72
2024/04/09 00:37:35;;;;;;;;;;;;;;;22.06;46.22;98693.81;4479506;26;19940;-72
2024/04/09 00:39:37;;;;;;;;;;;;;;;22.06;46.13;98689.19;4478347;26;19936;-72
2024/04/09 00:41:37;;;;;;;;;;;;;;;22.08;46.49;98686.22;4479101;26;19929;-72
2024/04/09 00:43:38;;;;;;;;;;;;;;;22.01;46.75;98691.03;4478897;26;19944;-72
2024/04/09 00:45:39;;;;;;;;;;;;;;;21.88;46.76;98684.91;4476051;26;20385;-72
2024/04/09 00:47:39;;;;;;;;;;;;;;;21.87;46.25;98688.69;4479146;26;19936;-72
2024/04/09 00:49:40;;;;;;;;;;;;;;;21.99;46.49;98677.69;4477188;26;19937;-73
2024/04/09 00:51:42;;;;;;;;;;;;;;;22.05;46.17;98684.00;4478481;26;20486;-72
2024/04/09 00:53:44;;;;;;;;;;;;;;;22.07;46.41;98684.59;4478255;26;19929;-72
2024/04/09 00:55:44;;;;;;;;;;;;;;;21.89;46.55;98685.72;4478504;26;19990;-72
2024/04/09 00:57:48;;;;;;;;;;;;;;;21.88;46.51;98690.34;4479097;26;19940;-72
2024/04/09 00:59:48;;;;;;;;;;;;;;;21.79;46.75;98678.25;4477283;26;20357;-72
2024/04/09 01:01:48;;;;;;;;;;;;;;;21.77;46.65;98680.41;4478008;26;19981;-72
2024/04/09 01:03:48;;;;;;;;;;;;;;;21.71;46.75;98674.06;4477516;26;19936;-73
2024/04/09 01:05:49;;;;;;;;;;;;;;;21.76;46.78;98678.75;4477888;26;19938;-72
2024/04/09 01:07:49;;;;;;;;;;;;;;;21.75;46.78;98680.66;4477715;26;19936;-73
2024/04/09 01:09:50;;;;;;;;;;;;;;;21.76;46.97;98678.75;4476794;26;19940;-72
2024/04/09 01:11:50;;;;;;;;;;;;;;;21.72;46.83;98685.78;4477799;26;19964;-73
2024/04/09 01:13:50;;;;;;;;;;;;;;;21.70;47.17;98683.28;4477971;26;20358;-73
2024/04/09 01:15:50;;;;;;;;;;;;;;;21.59;48.11;98690.50;4476158;26;20349;-72
2024/04/09 01:17:51;;;;;;;;;;;;;;;21.42;48.72;98673.38;4477798;26;19929;-72
2024/04/09 01:19:51;;;;;;;;;;;;;;;21.19;49.37;98669.75;4477257;26;20360;-72
2024/04/09 01:21:53;;;;;;;;;;;;;;;21.34;48.68;98669.16;4477569;26;20024;-72
2024/04/09 01:23:54;;;;;;;;;;;;;;;21.35;48.68;98666.19;4478297;26;20637;-72
2024/04/09 01:25:54;;;;;;;;;;;;;;;21.40;48.37;98665.44;4478741;26;19937;-72
2024/04/09 01:27:54;;;;;;;;;;;;;;;21.24;48.50;98661.69;4479974;26;20200;-72
2024/04/09 01:29:55;;;;;;;;;;;;;;;21.30;48.16;98666.13;4476616;26;19945;-73
2024/04/09 01:31:55;;;;;;;;;;;;;;;21.34;48.42;98658.28;4481138;26;19929;-72
2024/04/09 01:33:56;;;;;;;;;;;;;;;21.42;48.20;98662.50;4480498;26;19936;-73
2024/04/09 01:35:56;;;;;;;;;;;;;;;21.42;48.66;98649.72;4479777;26;20258;-72
2024/04/09 01:37:56;;;;;;;;;;;;;;;21.48;48.43;98643.28;4481201;26;19944;-72
2024/04/09 01:39:56;;;;;;;;;;;;;;;21.45;48.46;98642.94;4467749;26;19937;-72
2024/04/09 01:41:57;;;;;;;;;;;;;;;21.41;48.82;98644.53;4479285;26;19969;-72
2024/04/09 01:43:57;;;;;;;;;;;;;;;21.41;48.73;98642.63;4479147;26;19983;-72
2024/04/09 01:45:57;;;;;;;;;;;;;;;21.31;49.08;98646.03;4457564;26;20377;-73
2024/04/09 01:47:58;;;;;;;;;;;;;;;21.19;49.23;98643.41;4465553;26;19936;-72
2024/04/09 01:49:58;;;;;;;;;;;;;;;21.24;49.77;98658.97;4476450;26;19929;-74
2024/04/09 01:52:00;;;;;;;;;;;;;;;21.26;49.54;98659.53;4505016;26;19947;-73
2024/04/09 01:54:00;;;;;;;;;;;;;;;21.19;49.37;98657.00;4492246;26;19929;-73
2024/04/09 01:56:01;;;;;;;;;;;;;;;21.11;49.83;98662.03;4453464;26;20377;-74
2024/04/09 01:58:04;;;;;;;;;;;;;;;21.00;50.23;98667.28;4451910;26;19941;-72
2024/04/09 02:00:11;;;;;;;;;;;;;;;21.02;50.20;98659.72;4449730;26;19957;-72
2024/04/09 02:02:13;;;;;;;;;;;;;;;21.13;49.98;98660.69;4452434;26;19962;-72
2024/04/09 02:04:13;;;;;;;;;;;;;;;21.04;50.00;98657.59;4451273;26;19933;-72
2024/04/09 02:06:15;;;;;;;;;;;;;;;21.10;50.08;98671.25;4451123;26;19937;-72
2024/04/09 02:08:15;;;;;;;;;;;;;;;20.95;50.64;98667.22;4451515;26;19930;-71
2024/04/09 02:10:15;;;;;;;;;;;;;;;21.01;50.83;98673.56;4453385;26;19936;-72
2024/04/09 02:12:16;;;;;;;;;;;;;;;20.75;51.50;98673.09;4456584;26;20437;-72
2024/04/09 02:14:16;;;;;;;;;;;;;;;20.67;51.73;98674.31;4456190;26;19938;-72
2024/04/09 02:16:16;;;;;;;;;;;;;;;20.57;51.98;98680.38;4452132;26;19940;-72
2024/04/09 02:18:17;;;;;;;;;;;;;;;20.61;51.75;98680.72;4451524;26;19954;-75
2024/04/09 02:20:17;;;;;;;;;;;;;;;20.81;51.24;98679.44;4449660;26;19929;-72
2024/04/09 02:22:17;;;;;;;;;;;;;;;20.66;51.26;98688.97;4450538;26;20366;-73
2024/04/09 02:24:18;;;;;;;;;;;;;;;20.78;50.96;98690.81;4451164;26;20259;-72
2024/04/09 02:26:18;;;;;;;;;;;;;;;20.71;51.03;98696.38;4450756;26;20561;-72
2024/04/09 02:28:18;;;;;;;;;;;;;;;20.79;51.00;98693.28;4482730;26;20425;-71
2024/04/09 02:30:19;;;;;;;;;;;;;;;20.90;50.65;98685.31;4458061;26;19976;-72
2024/04/09 02:32:20;;;;;;;;;;;;;;;20.96;50.50;98685.16;4460130;26;20003;-74
2024/04/09 02:34:24;;;;;;;;;;;;;;;20.87;50.63;98689.34;4478032;26;19929;-72
2024/04/09 02:36:24;;;;;;;;;;;;;;;20.76;50.80;98693.75;4486943;26;20349;-72
2024/04/09 02:38:25;;;;;;;;;;;;;;;20.64;51.66;98688.38;4489612;26;19936;-72
2024/04/09 02:40:26;;;;;;;;;;;;;;;20.66;51.65;98688.13;4488553;26;19936;-73
2024/04/09 02:42:26;;;;;;;;;;;;;;;20.73;51.35;98689.66;4479311;26;19936;-72
2024/04/09 02:44:29;;;;;;;;;;;;;;;20.82;50.92;98689.25;4479944;26;19936;-72
2024/04/09 02:46:29;;;;;;;;;;;;;;;20.82;50.75;98708.25;4479216;26;19940;-72
2024/04/09 02:48:30;;;;;;;;;;;;;;;20.83;50.76;98699.03;4479527;26;19979;-72
2024/04/09 02:50:30;;;;;;;;;;;;;;;20.92;50.69;98702.19;4478135;26;19929;-72
2024/04/09 02:52:30;;;;;;;;;;;;;;;20.94;50.70;98697.31;4479629;26;19929;-72
2024/04/09 02:54:30;;;;;;;;;;;;;;;20.81;50.99;98712.03;4480248;26;19929;-72
2024/04/09 02:56:31;;;;;;;;;;;;;;;20.74;51.43;98709.47;4479913;26;20141;-72
2024/04/09 02:58:32;;;;;;;;;;;;;;;20.57;51.74;98725.72;4479662;26;19929;-73
2024/04/09 03:00:32;;;;;;;;;;;;;;;20.51;52.65;98729.38;4479073;26;20365;-72
2024/04/09 03:02:32;;;;;;;;;;;;;;;20.44;52.99;98734.13;4480102;26;19957;-72
2024/04/09 03:04:33;;;;;;;;;;;;;;;20.36;53.07;98736.16;4479397;26;19986;-72
2024/04/09 03:06:33;;;;;;;;;;;;;;;20.30;52.95;98737.13;4480448;26;19994;-72
2024/04/09 03:08:34;;;;;;;;;;;;;;;20.22;53.44;98732.06;4479697;26;19929;-72
2024/04/09 03:10:34;;;;;;;;;;;;;;;20.18;53.30;98730.91;4478244;26;19958;-72
2024/04/09 03:12:35;;;;;;;;;;;;;;;20.36;52.62;98736.16;4479205;26;20535;-72
2024/04/09 03:14:35;;;;;;;;;;;;;;;20.23;52.73;98741.84;4479154;26;19952;-71
2024/04/09 03:16:36;;;;;;;;;;;;;;;20.08;53.09;98754.06;4479761;26;19929;-72
2024/04/09 03:18:36;;;;;;;;;;;;;;;20.20;53.03;98754.03;4479381;26;19929;-73
2024/04/09 03:20:36;;;;;;;;;;;;;;;20.34;52.76;98760.00;4478946;26;19929;-72
2024/04/09 03:22:40;;;;;;;;;;;;;;;20.25;52.57;98758.72;4478982;26;19994;-73
2024/04/09 03:24:40;;;;;;;;;;;;;;;20.24;52.80;98767.94;4477419;26;20387;-72
2024/04/09 03:26:41;;;;;;;;;;;;;;;20.05;53.32;98776.22;4479698;26;19929;-72
2024/04/09 03:28:41;;;;;;;;;;;;;;;19.78;54.11;98781.28;4488832;26;19936;-72
2024/04/09 03:30:41;;;;;;;;;;;;;;;19.69;54.16;98788.13;4488872;26;19929;-71
2024/04/09 03:32:42;;;;;;;;;;;;;;;19.58;54.30;98793.31;4479162;26;19940;-70
2024/04/09 03:34:45;;;;;;;;;;;;;;;19.67;54.28;98796.47;4480245;26;19933;-71
2024/04/09 03:36:45;;;;;;;;;;;;;;;19.80;53.75;98796.25;4479852;26;19929;-71
2024/04/09 03:38:46;;;;;;;;;;;;;;;19.79;53.99;98789.19;4480116;26;20549;-71
2024/04/09 03:41:02;;;;;;;;;;;;;;;19.86;53.80;98785.53;4479734;26;20008;-71
2024/04/09 03:43:03;;;;;;;;;;;;;;;19.91;53.55;98782.97;4480737;26;19929;-71
2024/04/09 03:45:05;;;;;;;;;;;;;;;19.87;53.55;98779.91;4480319;26;20249;-71
2024/04/09 03:47:05;;;;;;;;;;;;;;;20.03;53.23;98769.38;4479666;26;19929;-72
2024/04/09 03:49:07;;;;;;;;;;;;;;;19.77;54.16;98775.03;4474615;26;19998;-70
2024/04/09 03:51:07;;;;;;;;;;;;;;;19.72;54.28;98785.78;4478055;26;19929;-72
2024/04/09 03:53:08;;;;;;;;;;;;;;;19.95;53.74;98781.41;4477913;26;19929;-73
2024/04/09 03:55:08;;;;;;;;;;;;;;;19.74;54.22;98791.75;4478896;26;20257;-72
2024/04/09 03:57:10;;;;;;;;;;;;;;;19.69;54.35;98794.38;4478448;26;19941;-73
2024/04/09 03:59:10;;;;;;;;;;;;;;;19.78;54.22;98814.63;4476819;26;19948;-70
2024/04/09 04:01:11;;;;;;;;;;;;;;;19.51;54.73;98816.16;4471000;26;19929;-71
2024/04/09 04:03:11;;;;;;;;;;;;;;;19.44;55.19;98813.53;4463775;26;20273;-73
2024/04/09 04:05:11;;;;;;;;;;;;;;;19.48;55.04;98818.25;4478013;26;20261;-72
2024/04/09 04:07:15;;;;;;;;;;;;;;;19.73;54.60;98817.25;4463112;26;19934;-73
2024/04/09 04:09:16;;;;;;;;;;;;;;;19.66;54.46;98821.94;4446138;26;20383;-72
2024/04/09 04:11:16;;;;;;;;;;;;;;;19.88;53.99;98814.09;4449933;26;19933;-71
2024/04/09 04:13:16;;;;;;;;;;;;;;;19.95;53.45;98827.53;4450583;26;19929;-71
2024/04/09 04:15:17;;;;;;;;;;;;;;;19.79;54.28;98821.72;4449978;26;19933;-71
2024/04/09 04:17:17;;;;;;;;;;;;;;;19.69;54.56;98821.47;4451983;26;19937;-72
2024/04/09 04:19:18;;;;;;;;;;;;;;;19.74;54.32;98826.19;4450064;26;19930;-71
2024/04/09 04:21:19;;;;;;;;;;;;;;;19.86;54.16;98828.94;4449076;26;19938;-71
2024/04/09 04:23:19;;;;;;;;;;;;;;;20.00;53.67;98824.94;4448878;26;19937;-71
2024/04/09 04:25:20;;;;;;;;;;;;;;;20.01;53.78;98823.88;4448524;26;19930;-73
2024/04/09 04:27:20;;;;;;;;;;;;;;;19.91;53.64;98839.91;4448828;26;20013;-72
2024/04/09 04:29:20;;;;;;;;;;;;;;;19.74;54.10;98854.13;4448806;26;19937;-73
2024/04/09 04:31:24;;;;;;;;;;;;;;;19.61;54.80;98851.63;4477576;26;19944;-72
2024/04/09 04:33:24;;;;;;;;;;;;;;;19.58;54.82;98852.94;4449247;26;19966;-74
2024/04/09 04:35:25;;;;;;;;;;;;;;;19.53;54.90;98860.09;4458349;26;19941;-72
2024/04/09 04:37:25;;;;;;;;;;;;;;;19.71;54.66;98854.59;4456085;26;19937;-71
2024/04/09 04:39:26;;;;;;;;;;;;;;;19.82;54.57;98868.41;4448302;26;20468;-72
2024/04/09 04:41:26;;;;;;;;;;;;;;;19.83;54.25;98870.06;4447878;26;19936;-72
2024/04/09 04:43:27;;;;;;;;;;;;;;;19.61;54.74;98879.56;4448349;26;19930;-72
2024/04/09 04:45:28;;;;;;;;;;;;;;;19.66;54.29;98880.75;4448307;26;19941;-71
2024/04/09 04:47:29;;;;;;;;;;;;;;;19.71;54.26;98879.00;4446479;26;19930;-72
2024/04/09 04:49:29;;;;;;;;;;;;;;;19.81;54.01;98881.13;4447819;26;19934;-72
2024/04/09 04:51:29;;;;;;;;;;;;;;;19.80;54.42;98891.16;4446780;26;20373;-72
2024/04/09 04:53:30;;;;;;;;;;;;;;;19.76;54.08;98898.09;4448143;26;19938;-72
2024/04/09 04:55:34;;;;;;;;;;;;;;;19.76;53.61;98910.84;4448244;26;19979;-71
2024/04/09 04:57:34;;;;;;;;;;;;;;;19.47;52.08;98916.06;4446828;26;19954;-72
2024/04/09 04:59:34;;;;;;;;;;;;;;;19.70;50.66;98912.59;4449397;26;19929;-71
2024/04/09 05:01:35;;;;;;;;;;;;;;;19.85;49.89;98920.31;4446903;26;19999;-71
2024/04/09 05:03:35;;;;;;;;;;;;;;;19.66;49.41;98922.22;4447463;26;19929;-71
2024/04/09 05:05:35;;;;;;;;;;;;;;;19.65;48.98;98928.69;4451008;26;19929;-72
2024/04/09 05:07:36;;;;;;;;;;;;;;;19.83;48.33;98940.56;4451185;26;19957;-71
2024/04/09 05:09:36;;;;;;;;;;;;;;;19.88;47.92;98943.41;4450409;26;19933;-72
2024/04/09 05:11:37;;;;;;;;;;;;;;;19.93;47.50;98947.09;4451360;26;19936;-71
2024/04/09 05:13:37;;;;;;;;;;;;;;;19.94;47.61;98942.47;4449558;26;19940;-72
2024/04/09 05:15:37;;;;;;;;;;;;;;;19.82;47.48;98952.47;4450043;26;19929;-72
2024/04/09 05:17:38;;;;;;;;;;;;;;;20.02;46.88;98954.88;4451934;26;19930;-72
2024/04/09 05:19:38;;;;;;;;;;;;;;;19.90;46.99;98963.00;4450152;26;19991;-71
2024/04/09 05:21:39;;;;;;;;;;;;;;;19.73;47.25;98957.38;4450437;26;20020;-71
2024/04/09 05:23:39;;;;;;;;;;;;;;;19.77;47.05;98959.41;4450674;26;19936;-71
2024/04/09 05:25:39;;;;;;;;;;;;;;;19.89;46.77;98961.34;4449605;26;20475;-73
2024/04/09 05:27:40;;;;;;;;;;;;;;;20.03;46.55;98973.63;4450660;26;20386;-72
2024/04/09 05:29:40;;;;;;;;;;;;;;;20.07;46.36;98982.97;4449797;26;19937;-72
2024/04/09 05:31:43;;;;;;;;;;;;;;;20.13;46.13;98989.34;4450502;26;19929;-73
2024/04/09 05:33:43;;;;;;;;;;;;;;;20.06;46.24;98991.34;4450604;26;19929;-71
2024/04/09 05:35:44;;;;;;;;;;;;;;;19.98;46.46;99000.63;4450918;26;19958;-71
2024/04/09 05:37:45;;;;;;;;;;;;;;;19.97;46.35;99001.69;4450995;26;19960;-73
2024/04/09 05:39:48;;;;;;;;;;;;;;;19.88;46.65;99017.47;4449826;26;20300;-72
2024/04/09 05:41:48;;;;;;;;;;;;;;;19.98;46.33;99011.47;4451529;26;19936;-72
2024/04/09 05:43:49;;;;;;;;;;;;;;;19.92;46.48;99026.78;4450560;26;19929;-72
2024/04/09 05:45:49;;;;;;;;;;;;;;;19.93;46.33;99033.06;4450448;26;20328;-72
2024/04/09 05:47:49;;;;;;;;;;;;;;;20.16;46.05;99045.84;4449832;26;19936;-72
2024/04/09 05:49:49;;;;;;;;;;;;;;;20.05;45.82;99049.34;4449359;26;19992;-72
2024/04/09 05:51:50;;;;;;;;;;;;;;;20.02;45.79;99058.78;4451395;26;19936;-73
2024/04/09 05:53:50;;;;;;;;;;;;;;;20.33;45.46;99064.19;4452681;26;19933;-72
2024/04/09 05:55:54;;;;;;;;;;;;;;;20.29;45.49;99060.25;4452041;26;19999;-72
2024/04/09 05:57:55;;;;;;;;;;;;;;;20.34;45.54;99071.25;4450943;26;19935;-71
2024/04/09 05:59:55;;;;;;;;;;;;;;;20.27;45.17;99065.94;4447775;26;20370;-72
2024/04/09 06:01:57;;;;;;;;;;;;;;;20.54;44.36;99070.94;4450115;26;20338;-72
2024/04/09 06:03:58;;;;;;;;;;;;;;;20.40;44.65;99075.75;4450397;26;19937;-73
2024/04/09 06:05:59;;;;;;;;;;;;;;;20.40;44.96;99073.84;4450131;26;19937;-73
2024/04/09 06:07:59;;;;;;;;;;;;;;;20.80;44.23;99090.56;4450466;26;19930;-74
2024/04/09 06:10:00;;;;;;;;;;;;;;;20.84;44.33;99086.34;4447724;26;19930;-74
2024/04/09 06:12:00;;;;;;;;;;;;;;;20.83;44.34;99079.25;4450278;26;19930;-74
2024/04/09 06:14:00;;;;;;;;;;;;;;;20.77;44.63;99082.91;4450007;26;19929;-73
2024/04/09 06:16:01;;;;;;;;;;;;;;;20.83;44.53;99087.41;4447384;26;19930;-73
2024/04/09 06:18:01;;;;;;;;;;;;;;;20.61;45.13;99090.66;4449581;26;19937;-72
2024/04/09 06:20:01;;;;;;;;;;;;;;;20.70;45.19;99093.84;4447620;26;19941;-73
2024/04/09 06:22:02;;;;;;;;;;;;;;;20.29;45.96;99096.38;4449680;26;19936;-73
2024/04/09 06:24:02;;;;;;;;;;;;;;;20.36;45.92;99102.53;4450184;26;19937;-73
2024/04/09 06:26:03;;;;;;;;;;;;;;;20.22;46.53;99101.06;4449389;26;19937;-72
2024/04/09 06:28:03;;;;;;;;;;;;;;;20.41;46.19;99104.53;4451480;26;19941;-72
2024/04/09 06:30:04;;;;;;;;;;;;;;;20.78;45.70;99103.59;4450505;26;19929;-72
2024/04/09 06:32:04;;;;;;;;;;;;;;;20.79;45.55;99105.22;4450776;26;20358;-72
2024/04/09 06:34:04;;;;;;;;;;;;;;;20.46;46.38;99118.22;4450044;26;19977;-73
2024/04/09 06:36:05;;;;;;;;;;;;;;;20.65;45.91;99124.41;4449647;26;19937;-73
2024/04/09 06:38:06;;;;;;;;;;;;;;;20.33;46.54;99119.25;4448120;26;19995;-73
2024/04/09 06:40:06;;;;;;;;;;;;;;;20.46;46.54;99115.50;4448602;26;19929;-73
2024/04/09 06:42:06;;;;;;;;;;;;;;;20.31;46.85;99129.50;4449831;26;19929;-73
2024/04/09 06:44:07;;;;;;;;;;;;;;;20.53;46.16;99134.41;4449613;26;19937;-73
2024/04/09 06:46:07;;;;;;;;;;;;;;;20.18;47.41;99144.09;4449410;26;19998;-73
2024/04/09 06:48:07;;;;;;;;;;;;;;;20.27;47.37;99142.72;4442193;26;19945;-73
2024/04/09 06:50:10;;;;;;;;;;;;;;;20.34;47.33;99145.34;4449491;26;19945;-73
2024/04/09 06:52:10;;;;;;;;;;;;;;;20.08;47.71;99149.25;4447160;26;19984;-73
2024/04/09 06:54:11;;;;;;;;;;;;;;;19.90;48.37;99150.94;4444406;26;19937;-73
2024/04/09 06:56:11;;;;;;;;;;;;;;;19.99;48.12;99156.88;4450307;26;20322;-74
2024/04/09 06:58:12;;;;;;;;;;;;;;;20.16;48.04;99167.09;4449542;26;19930;-73
2024/04/09 07:00:14;;;;;;;;;;;;;;;20.20;48.27;99162.88;4449189;26;19958;-72
2024/04/09 07:02:14;;;;;;;;;;;;;;;20.27;48.17;99174.47;4449619;26;20473;-73
2024/04/09 07:04:15;;;;;;;;;;;;;;;20.14;48.85;99171.91;4449721;26;20046;-73
2024/04/09 07:06:15;;;;;;;;;;;;;;;20.22;48.66;99177.03;4449198;26;19994;-73
2024/04/09 07:08:15;;;;;;;;;;;;;;;20.16;48.80;99178.78;4449811;26;19980;-73
2024/04/09 07:10:15;;;;;;;;;;;;;;;20.05;48.95;99176.84;4448675;26;19936;-73
2024/04/09 07:12:16;;;;;;;;;;;;;;;19.75;49.53;99177.59;4450147;26;19929;-72
2024/04/09 07:14:16;;;;;;;;;;;;;;;19.77;49.74;99200.72;4450027;26;20378;-73
2024/04/09 07:16:16;;;;;;;;;;;;;;;20.01;49.53;99202.75;4450210;26;19936;-73
2024/04/09 07:18:17;;;;;;;;;;;;;;;19.90;49.50;99202.47;4453174;26;19942;-73
2024/04/09 07:20:17;;;;;;;;;;;;;;;19.72;50.05;99203.28;4454520;26;20408;-73
2024/04/09 07:22:17;;;;;;;;;;;;;;;19.48;50.55;99207.69;4453695;26;19930;-72
2024/04/09 07:24:18;;;;;;;;;;;;;;;19.49;50.54;99207.47;4452907;26;19929;-73
2024/04/09 07:26:19;;;;;;;;;;;;;;;19.28;51.19;99224.97;4452644;26;19976;-72
2024/04/09 07:28:20;;;;;;;;;;;;;;;19.62;50.67;99230.91;4451129;26;19930;-73
2024/04/09 07:30:20;;;;;;;;;;;;;;;19.27;51.04;99236.03;4450629;26;19936;-74
2024/04/09 07:32:22;;;;;;;;;;;;;;;19.63;50.46;99245.28;4451278;26;19930;-74
2024/04/09 07:34:23;;;;;;;;;;;;;;;19.19;51.11;99253.38;4449304;26;19940;-73
2024/04/09 07:36:24;;;;;;;;;;;;;;;19.36;50.60;99250.97;4449634;26;20358;-73
2024/04/09 07:38:24;;;;;;;;;;;;;;;19.16;50.40;99246.53;4449160;26;19937;-74
2024/04/09 07:40:24;;;;;;;;;;;;;;;18.92;51.39;99256.28;4448064;26;19937;-73
2024/04/09 07:42:24;;;;;;;;;;;;;;;19.13;50.24;99252.38;4448797;26;20001;-73
2024/04/09 07:44:25;;;;;;;;;;;;;;;19.13;50.87;99257.81;4449054;26;19937;-73
2024/04/09 07:46:25;;;;;;;;;;;;;;;19.12;50.67;99266.97;4449054;26;19930;-74
2024/04/09 07:48:25;;;;;;;;;;;;;;;19.13;50.72;99279.47;4449005;26;19936;-73
2024/04/09 07:50:26;;;;;;;;;;;;;;;19.25;50.16;99286.91;4448457;26;19984;-74
2024/04/09 07:52:26;;;;;;;;;;;;;;;18.67;51.61;99280.56;4449396;26;19938;-74
2024/04/09 07:54:26;;;;;;;;;;;;;;;18.96;51.12;99283.78;4457709;26;19929;-74
2024/04/09 07:56:26;;;;;;;;;;;;;;;18.62;51.70;99304.72;4461018;26;20274;-73
2024/04/09 07:58:27;;;;;;;;;;;;;;;18.29;52.68;99313.84;4449745;26;19930;-73
2024/04/09 08:00:27;;;;;;;;;;;;;;;18.69;51.75;99317.19;4448184;26;19971;-73
2024/04/09 08:02:27;;;;;;;;;;;;;;;18.55;52.54;99321.03;4448998;26;19937;-73
2024/04/09 08:04:28;;;;;;;;;;;;;;;18.47;52.36;99332.91;4448372;26;19930;-74
2024/04/09 08:06:31;;;;;;;;;;;;;;;18.16;53.60;99339.88;4448761;26;19964;-73
2024/04/09 08:08:31;;;;;;;;;;;;;;;18.37;52.65;99346.06;4448613;26;19940;-73
2024/04/09 08:10:34;;;;;;;;;;;;;;;18.01;53.75;99363.63;4447859;26;19929;-73
2024/04/09 08:12:34;;;;;;;;;;;;;;;18.13;53.86;99363.81;4448650;26;19979;-74
2024/04/09 08:14:35;;;;;;;;;;;;;;;18.17;53.67;99378.59;4448511;26;19942;-73
2024/04/09 08:16:35;;;;;;;;;;;;;;;18.46;52.98;99379.16;4449059;26;19930;-73
2024/04/09 08:18:35;;;;;;;;;;;;;;;17.95;53.83;99392.31;4448570;26;19929;-73
2024/04/09 08:20:36;;;;;;;;;;;;;;;18.06;53.88;99398.97;4445909;26;19929;-73
2024/04/09 08:22:39;;;;;;;;;;;;;;;17.48;54.76;99413.88;4448221;26;19930;-73
2024/04/09 08:24:39;;;;;;;;;;;;;;;17.38;53.91;99425.09;4448181;26;19930;-73
2024/04/09 08:26:41;;;;;;;;;;;;;;;17.25;52.95;99436.72;4449048;26;19929;-73
2024/04/09 08:28:41;;;;;;;;;;;;;;;16.73;53.30;99440.81;4449373;26;19936;-74
2024/04/09 08:30:41;;;;;;;;;;;;;;;16.45;53.28;99463.28;4449758;26;20254;-73
2024/04/09 08:32:42;;;;;;;;;;;;;;;16.28;53.57;99473.56;4448195;26;19930;-72
2024/04/09 08:34:44;;;;;;;;;;;;;;;16.11;53.53;99473.00;4450198;26;19930;-73
2024/04/09 08:36:44;;;;;;;;;;;;;;;16.22;53.08;99467.91;4452673;26;19944;-71
2024/04/09 08:38:44;;;;;;;;;;;;;;;16.19;53.18;99464.78;4451449;26;20003;-73
2024/04/09 08:40:45;;;;;;;;;;;;;;;15.86;53.20;99468.03;4452330;26;19929;-73
2024/04/09 08:42:45;;;;;;;;;;;;;;;16.40;52.47;99487.34;4453694;26;19933;-77
2024/04/09 08:44:48;;;;;;;;;;;;;;;16.15;52.59;99479.69;4453218;26;19937;-74
2024/04/09 08:46:49;;;;;;;;;;;;;;;16.41;52.24;99483.59;4453371;26;19933;-73
2024/04/09 08:48:50;;;;;;;;;;;;;;;16.09;51.88;99493.94;4455268;26;19936;-74
2024/04/09 08:50:52;;;;;;;;;;;;;;;16.36;51.60;99503.06;4453668;26;19930;-73
2024/04/09 08:52:53;;;;;;;;;;;;;;;16.02;51.51;99507.34;4452569;26;19949;-72
2024/04/09 08:54:54;;;;;;;;;;;;;;;16.13;51.58;99527.56;4450678;26;20048;-73
2024/04/09 08:56:54;;;;;;;;;;;;;;;16.13;51.40;99536.47;4452072;26;19929;-74
2024/04/09 08:58:55;;;;;;;;;;;;;;;16.17;51.06;99545.03;4451232;26;20040;-73
2024/04/09 09:00:56;;;;;;;;;;;;;;;15.90;51.43;99558.25;4448391;26;19930;-69
2024/04/09 09:02:56;;;;;;;;;;;;;;;15.75;52.60;99569.88;4451262;26;19929;-70
2024/04/09 09:04:56;;;;;;;;;;;;;;;15.69;52.27;99567.13;4450864;26;20396;-70
2024/04/09 09:06:57;;;;;;;;;;;;;;;15.73;52.33;99571.09;4451073;26;19929;-71
2024/04/09 09:08:58;;;;;;;;;;;;;;;15.84;52.22;99573.31;4450654;26;19929;-73
2024/04/09 09:10:59;;;;;;;;;;;;;;;15.40;52.59;99571.53;4450473;26;19941;-71
2024/04/09 09:13:02;;;;;;;;;;;;;;;15.48;51.73;99584.06;4451067;26;19995;-73
2024/04/09 09:15:03;;;;;;;;;;;;;;;15.80;50.84;99579.25;4451026;26;20261;-71
2024/04/09 09:17:04;;;;;;;;;;;;;;;15.79;51.21;99586.50;4451064;26;19937;-71
2024/04/09 09:19:05;;;;;;;;;;;;;;;15.68;51.16;99587.00;4450873;26;19999;-72
2024/04/09 09:21:05;;;;;;;;;;;;;;;15.58;51.37;99588.13;4454863;26;19958;-72
2024/04/09 09:23:06;;;;;;;;;;;;;;;15.54;50.81;99589.53;4464033;26;19936;-72
2024/04/09 09:25:13;;;;;;;;;;;;;;;15.38;50.64;99587.91;4461143;26;19976;-73
2024/04/09 09:27:13;;;;;;;;;;;;;;;15.17;50.82;99595.88;4455939;26;19937;-71
2024/04/09 09:29:14;;;;;;;;;;;;;;;14.91;51.39;99599.88;4456333;26;20559;-72
2024/04/09 09:31:14;;;;;;;;;;;;;;;14.83;51.70;99608.84;4449369;26;20789;-71
2024/04/09 09:33:19;;;;;;;;;;;;;;;14.56;51.50;99618.31;4450672;26;19937;-73
2024/04/09 09:35:20;;;;;;;;;;;;;;;15.07;50.83;99613.16;4450601;26;19929;-72
2024/04/09 09:37:21;;;;;;;;;;;;;;;14.96;50.77;99625.22;4450568;26;20013;-73
2024/04/09 09:39:22;;;;;;;;;;;;;;;14.90;50.50;99633.19;4450062;26;20374;-73
2024/04/09 09:41:22;;;;;;;;;;;;;;;15.18;49.88;99628.00;4448156;26;19937;-71
2024/04/09 09:43:24;;;;;;;;;;;;;;;14.69;50.65;99632.00;4450419;26;19945;-71
2024/04/09 09:45:24;;;;;;;;;;;;;;;14.61;50.63;99645.50;4450339;26;19933;-72
2024/04/09 09:47:25;;;;;;;;;;;;;;;14.77;50.70;99650.78;4450518;26;19933;-73
2024/04/09 09:49:26;;;;;;;;;;;;;;;14.82;49.53;99650.22;4450306;26;20017;-72
2024/04/09 09:51:27;;;;;;;;;;;;;;;14.54;49.77;99650.78;4448833;26;19936;-72
2024/04/09 09:53:27;;;;;;;;;;;;;;;14.56;49.49;99662.19;4450193;26;19936;-71
2024/04/09 09:55:29;;;;;;;;;;;;;;;14.29;50.36;99668.94;4448349;26;19937;-71
2024/04/09 09:57:31;;;;;;;;;;;;;;;14.48;49.96;99668.47;4450386;26;19929;-71
2024/04/09 09:59:36;;;;;;;;;;;;;;;14.99;48.98;99672.44;4450420;26;19930;-71
2024/04/09 10:01:37;;;;;;;;;;;;;;;14.52;49.92;99687.75;4449986;26;19936;-71
2024/04/09 10:03:39;;;;;;;;;;;;;;;14.38;49.79;99699.31;4450643;26;19938;-73
2024/04/09 10:05:39;;;;;;;;;;;;;;;14.31;50.39;99712.63;4451166;26;19936;-71
2024/04/09 10:07:40;;;;;;;;;;;;;;;14.35;50.12;99708.56;4450306;26;19946;-73
2024/04/09 10:09:41;;;;;;;;;;;;;;;14.38;50.27;99702.00;4449328;26;19995;-71
2024/04/09 10:11:43;;;;;;;;;;;;;;;14.56;50.08;99704.38;4448553;26;19937;-70
2024/04/09 10:13:51;;;;;;;;;;;;;;;14.71;49.59;99716.06;4450052;26;19938;-71
2024/04/09 10:15:55;;;;;;;;;;;;;;;14.06;51.27;99736.94;4450267;26;20021;-71
2024/04/09 10:17:56;;;;;;;;;;;;;;;14.06;51.50;99744.16;4450511;26;19936;-71
2024/04/09 10:19:57;;;;;;;;;;;;;;;13.84;51.47;99757.34;4449326;26;19936;-71
2024/04/09 10:21:57;;;;;;;;;;;;;;;14.29;50.85;99761.19;4449766;26;19938;-72
2024/04/09 10:24:01;;;;;;;;;;;;;;;13.89;51.60;99777.31;4450419;26;19948;-70
2024/04/09 10:26:02;;;;;;;;;;;;;;;14.43;50.96;99775.75;4449149;26;19957;-71
2024/04/09 10:28:03;;;;;;;;;;;;;;;14.04;51.56;99776.59;4450360;26;19930;-71
2024/04/09 10:30:11;;;;;;;;;;;;;;;14.30;50.76;99770.09;4449734;26;20697;-71